sensor_id;sensor_type;location;lat;lon;timestamp;P1;durP1;ratioP1;P2;durP2;ratioP2
69008;SDS011;56065;52.472;13.380;2022-10-16T00:01:04;3.80;;;1.50;;
69008;SDS011;56065;52.472;13.380;2022-10-16T00:03:33;5.18;;;1.50;;
69008;SDS011;56065;52.472;13.380;2022-10-16T00:05:59;4.20;;;1.20;;
69008;SDS011;56065;52.472;13.380;2022-10-16T00:08:26;4.87;;;1.30;;
69008;SDS011;56065;52.472;13.380;2022-10-16T00:10:51;4.88;;;1.40;;
69008;SDS011;56065;52.472;13.380;2022-10-16T00:13:17;4.73;;;1.07;;
69008;SDS011;56065;52.472;13.380;2022-10-16T00:15:42;3.63;;;1.20;;
69008;SDS011;56065;52.472;13.380;2022-10-16T00:18:09;5.35;;;1.20;;
69008;SDS011;56065;52.472;13.380;2022-10-16T00:20:35;5.40;;;1.40;;
69008;SDS011;56065;52.472;13.380;2022-10-16T00:23:02;3.70;;;1.10;;
69008;SDS011;56065;52.472;13.380;2022-10-16T00:25:28;3.33;;;1.23;;
69008;SDS011;56065;52.472;13.380;2022-10-16T00:27:53;5.10;;;1.20;;
69008;SDS011;56065;52.472;13.380;2022-10-16T00:30:19;3.83;;;1.20;;
69008;SDS011;56065;52.472;13.380;2022-10-16T00:32:44;7.33;;;1.60;;
69008;SDS011;56065;52.472;13.380;2022-10-16T00:35:10;4.50;;;1.47;;
69008;SDS011;56065;52.472;13.380;2022-10-16T00:37:35;4.00;;;1.00;;
69008;SDS011;56065;52.472;13.380;2022-10-16T00:40:01;4.27;;;1.30;;
69008;SDS011;56065;52.472;13.380;2022-10-16T00:42:26;3.63;;;1.20;;
69008;SDS011;56065;52.472;13.380;2022-10-16T00:47:19;3.05;;;0.95;;
69008;SDS011;56065;52.472;13.380;2022-10-16T00:49:50;3.63;;;1.10;;
69008;SDS011;56065;52.472;13.380;2022-10-16T00:52:18;3.50;;;1.00;;
69008;SDS011;56065;52.472;13.380;2022-10-16T00:54:44;4.57;;;1.00;;
69008;SDS011;56065;52.472;13.380;2022-10-16T00:57:11;3.58;;;1.10;;
69008;SDS011;56065;52.472;13.380;2022-10-16T00:59:38;3.77;;;1.30;;
69008;SDS011;56065;52.472;13.380;2022-10-16T01:02:06;3.22;;;1.00;;
69008;SDS011;56065;52.472;13.380;2022-10-16T01:04:37;4.28;;;1.30;;
69008;SDS011;56065;52.472;13.380;2022-10-16T01:12:50;3.90;;;1.30;;
69008;SDS011;56065;52.472;13.380;2022-10-16T01:15:25;5.55;;;1.40;;
69008;SDS011;56065;52.472;13.380;2022-10-16T01:18:19;7.35;;;1.75;;
69008;SDS011;56065;52.472;13.380;2022-10-16T01:20:53;3.53;;;1.30;;
69008;SDS011;56065;52.472;13.380;2022-10-16T01:28:32;5.17;;;1.20;;
69008;SDS011;56065;52.472;13.380;2022-10-16T01:31:04;4.00;;;1.33;;
69008;SDS011;56065;52.472;13.380;2022-10-16T01:33:38;4.53;;;1.40;;
69008;SDS011;56065;52.472;13.380;2022-10-16T01:36:15;4.68;;;1.10;;
69008;SDS011;56065;52.472;13.380;2022-10-16T01:38:44;4.30;;;1.17;;
69008;SDS011;56065;52.472;13.380;2022-10-16T01:46:31;4.35;;;0.85;;
69008;SDS011;56065;52.472;13.380;2022-10-16T01:48:57;4.18;;;0.93;;
69008;SDS011;56065;52.472;13.380;2022-10-16T01:51:25;3.20;;;1.10;;
69008;SDS011;56065;52.472;13.380;2022-10-16T01:53:53;3.63;;;1.30;;
69008;SDS011;56065;52.472;13.380;2022-10-16T01:56:20;4.03;;;1.25;;
69008;SDS011;56065;52.472;13.380;2022-10-16T01:58:49;3.30;;;1.20;;
69008;SDS011;56065;52.472;13.380;2022-10-16T02:01:19;4.20;;;1.05;;
69008;SDS011;56065;52.472;13.380;2022-10-16T02:03:48;6.73;;;1.40;;
69008;SDS011;56065;52.472;13.380;2022-10-16T02:06:16;3.58;;;1.23;;
69008;SDS011;56065;52.472;13.380;2022-10-16T02:08:41;5.43;;;1.40;;
69008;SDS011;56065;52.472;13.380;2022-10-16T02:11:09;3.20;;;1.10;;
69008;SDS011;56065;52.472;13.380;2022-10-16T02:16:15;3.65;;;1.10;;
69008;SDS011;56065;52.472;13.380;2022-10-16T02:18:41;4.17;;;1.20;;
69008;SDS011;56065;52.472;13.380;2022-10-16T02:21:14;4.70;;;1.33;;
69008;SDS011;56065;52.472;13.380;2022-10-16T02:23:57;4.28;;;1.20;;
69008;SDS011;56065;52.472;13.380;2022-10-16T02:26:37;3.92;;;1.45;;
69008;SDS011;56065;52.472;13.380;2022-10-16T02:29:14;4.20;;;1.20;;
69008;SDS011;56065;52.472;13.380;2022-10-16T02:31:43;3.40;;;0.95;;
69008;SDS011;56065;52.472;13.380;2022-10-16T02:34:12;3.83;;;1.10;;
69008;SDS011;56065;52.472;13.380;2022-10-16T02:36:39;3.80;;;1.23;;
69008;SDS011;56065;52.472;13.380;2022-10-16T02:39:06;3.17;;;1.17;;
69008;SDS011;56065;52.472;13.380;2022-10-16T02:41:33;3.13;;;1.00;;
69008;SDS011;56065;52.472;13.380;2022-10-16T02:43:58;2.80;;;0.90;;
69008;SDS011;56065;52.472;13.380;2022-10-16T02:46:24;3.83;;;1.40;;
69008;SDS011;56065;52.472;13.380;2022-10-16T02:48:49;4.50;;;1.10;;
69008;SDS011;56065;52.472;13.380;2022-10-16T02:51:15;3.73;;;1.20;;
69008;SDS011;56065;52.472;13.380;2022-10-16T02:53:40;3.28;;;1.20;;
69008;SDS011;56065;52.472;13.380;2022-10-16T02:56:05;3.67;;;1.00;;
69008;SDS011;56065;52.472;13.380;2022-10-16T02:58:31;3.53;;;1.10;;
69008;SDS011;56065;52.472;13.380;2022-10-16T03:00:56;3.70;;;1.10;;
69008;SDS011;56065;52.472;13.380;2022-10-16T03:03:21;4.07;;;1.30;;
69008;SDS011;56065;52.472;13.380;2022-10-16T03:05:47;2.93;;;1.03;;
69008;SDS011;56065;52.472;13.380;2022-10-16T03:08:12;4.50;;;1.13;;
69008;SDS011;56065;52.472;13.380;2022-10-16T03:10:38;3.65;;;1.05;;
69008;SDS011;56065;52.472;13.380;2022-10-16T03:13:04;4.03;;;1.20;;
69008;SDS011;56065;52.472;13.380;2022-10-16T03:15:29;5.20;;;1.20;;
69008;SDS011;56065;52.472;13.380;2022-10-16T03:17:57;4.33;;;1.40;;
69008;SDS011;56065;52.472;13.380;2022-10-16T03:20:23;4.05;;;1.25;;
69008;SDS011;56065;52.472;13.380;2022-10-16T03:22:48;3.90;;;1.17;;
69008;SDS011;56065;52.472;13.380;2022-10-16T03:25:13;6.17;;;1.30;;
69008;SDS011;56065;52.472;13.380;2022-10-16T03:27:39;3.47;;;1.10;;
69008;SDS011;56065;52.472;13.380;2022-10-16T03:30:04;3.13;;;1.30;;
69008;SDS011;56065;52.472;13.380;2022-10-16T03:32:30;4.00;;;1.27;;
69008;SDS011;56065;52.472;13.380;2022-10-16T03:34:55;2.87;;;1.10;;
69008;SDS011;56065;52.472;13.380;2022-10-16T03:37:21;4.38;;;1.23;;
69008;SDS011;56065;52.472;13.380;2022-10-16T03:39:47;3.47;;;1.03;;
69008;SDS011;56065;52.472;13.380;2022-10-16T03:42:12;3.37;;;1.20;;
69008;SDS011;56065;52.472;13.380;2022-10-16T03:44:37;3.67;;;1.30;;
69008;SDS011;56065;52.472;13.380;2022-10-16T03:47:03;4.03;;;1.30;;
69008;SDS011;56065;52.472;13.380;2022-10-16T03:49:28;4.53;;;1.30;;
69008;SDS011;56065;52.472;13.380;2022-10-16T03:51:53;4.67;;;1.30;;
69008;SDS011;56065;52.472;13.380;2022-10-16T03:54:19;3.60;;;1.40;;
69008;SDS011;56065;52.472;13.380;2022-10-16T03:56:44;4.00;;;1.35;;
69008;SDS011;56065;52.472;13.380;2022-10-16T03:59:09;6.20;;;1.30;;
69008;SDS011;56065;52.472;13.380;2022-10-16T04:01:35;3.33;;;0.97;;
69008;SDS011;56065;52.472;13.380;2022-10-16T04:04:00;4.10;;;1.20;;
69008;SDS011;56065;52.472;13.380;2022-10-16T04:06:25;3.67;;;1.20;;
69008;SDS011;56065;52.472;13.380;2022-10-16T04:08:51;3.97;;;1.23;;
69008;SDS011;56065;52.472;13.380;2022-10-16T04:11:16;5.43;;;1.33;;
69008;SDS011;56065;52.472;13.380;2022-10-16T04:13:41;4.90;;;1.40;;
69008;SDS011;56065;52.472;13.380;2022-10-16T04:16:07;3.97;;;1.30;;
69008;SDS011;56065;52.472;13.380;2022-10-16T04:18:32;5.23;;;1.17;;
69008;SDS011;56065;52.472;13.380;2022-10-16T04:21:02;6.07;;;1.30;;
69008;SDS011;56065;52.472;13.380;2022-10-16T04:23:30;3.67;;;1.20;;
69008;SDS011;56065;52.472;13.380;2022-10-16T04:25:56;4.30;;;1.10;;
69008;SDS011;56065;52.472;13.380;2022-10-16T04:28:21;4.47;;;1.10;;
69008;SDS011;56065;52.472;13.380;2022-10-16T04:30:46;4.25;;;1.20;;
69008;SDS011;56065;52.472;13.380;2022-10-16T04:33:12;3.47;;;1.13;;
69008;SDS011;56065;52.472;13.380;2022-10-16T04:35:38;3.50;;;1.10;;
69008;SDS011;56065;52.472;13.380;2022-10-16T04:38:03;3.97;;;1.05;;
69008;SDS011;56065;52.472;13.380;2022-10-16T04:40:29;5.20;;;1.20;;
69008;SDS011;56065;52.472;13.380;2022-10-16T04:42:57;4.47;;;1.30;;
69008;SDS011;56065;52.472;13.380;2022-10-16T04:45:23;4.47;;;1.60;;
69008;SDS011;56065;52.472;13.380;2022-10-16T04:47:49;4.43;;;1.30;;
69008;SDS011;56065;52.472;13.380;2022-10-16T04:50:14;3.30;;;1.10;;
69008;SDS011;56065;52.472;13.380;2022-10-16T04:52:39;5.00;;;1.10;;
69008;SDS011;56065;52.472;13.380;2022-10-16T04:55:05;3.55;;;1.50;;
69008;SDS011;56065;52.472;13.380;2022-10-16T04:57:30;4.33;;;1.70;;
69008;SDS011;56065;52.472;13.380;2022-10-16T04:59:56;3.93;;;1.27;;
69008;SDS011;56065;52.472;13.380;2022-10-16T05:02:21;5.32;;;1.60;;
69008;SDS011;56065;52.472;13.380;2022-10-16T05:04:47;5.73;;;1.30;;
69008;SDS011;56065;52.472;13.380;2022-10-16T05:07:12;3.50;;;1.27;;
69008;SDS011;56065;52.472;13.380;2022-10-16T05:09:37;3.90;;;1.30;;
69008;SDS011;56065;52.472;13.380;2022-10-16T05:12:03;5.07;;;1.50;;
69008;SDS011;56065;52.472;13.380;2022-10-16T05:14:28;4.70;;;1.50;;
69008;SDS011;56065;52.472;13.380;2022-10-16T05:16:54;3.93;;;1.50;;
69008;SDS011;56065;52.472;13.380;2022-10-16T05:19:19;5.50;;;1.63;;
69008;SDS011;56065;52.472;13.380;2022-10-16T05:21:45;5.83;;;1.80;;
69008;SDS011;56065;52.472;13.380;2022-10-16T05:24:10;3.90;;;1.50;;
69008;SDS011;56065;52.472;13.380;2022-10-16T05:26:36;4.33;;;1.60;;
69008;SDS011;56065;52.472;13.380;2022-10-16T05:29:01;5.03;;;1.77;;
69008;SDS011;56065;52.472;13.380;2022-10-16T05:31:27;7.15;;;2.00;;
69008;SDS011;56065;52.472;13.380;2022-10-16T05:33:57;6.23;;;2.00;;
69008;SDS011;56065;52.472;13.380;2022-10-16T05:36:26;4.85;;;1.55;;
69008;SDS011;56065;52.472;13.380;2022-10-16T05:38:51;5.30;;;1.80;;
69008;SDS011;56065;52.472;13.380;2022-10-16T05:41:17;5.68;;;1.90;;
69008;SDS011;56065;52.472;13.380;2022-10-16T05:43:48;3.67;;;1.52;;
69008;SDS011;56065;52.472;13.380;2022-10-16T05:46:14;5.10;;;1.80;;
69008;SDS011;56065;52.472;13.380;2022-10-16T05:48:40;4.70;;;1.83;;
69008;SDS011;56065;52.472;13.380;2022-10-16T05:51:07;3.93;;;1.50;;
69008;SDS011;56065;52.472;13.380;2022-10-16T05:53:36;5.10;;;1.80;;
69008;SDS011;56065;52.472;13.380;2022-10-16T05:56:03;5.97;;;2.13;;
69008;SDS011;56065;52.472;13.380;2022-10-16T05:58:33;4.57;;;1.40;;
69008;SDS011;56065;52.472;13.380;2022-10-16T06:01:02;5.10;;;1.50;;
69008;SDS011;56065;52.472;13.380;2022-10-16T06:03:29;5.75;;;1.80;;
69008;SDS011;56065;52.472;13.380;2022-10-16T06:05:55;6.17;;;1.90;;
69008;SDS011;56065;52.472;13.380;2022-10-16T06:08:21;6.22;;;1.80;;
69008;SDS011;56065;52.472;13.380;2022-10-16T06:10:47;5.67;;;1.60;;
69008;SDS011;56065;52.472;13.380;2022-10-16T06:13:14;6.43;;;1.80;;
69008;SDS011;56065;52.472;13.380;2022-10-16T06:15:40;4.60;;;1.60;;
69008;SDS011;56065;52.472;13.380;2022-10-16T06:18:08;4.65;;;1.80;;
69008;SDS011;56065;52.472;13.380;2022-10-16T06:20:34;6.50;;;1.88;;
69008;SDS011;56065;52.472;13.380;2022-10-16T06:23:00;5.43;;;1.53;;
69008;SDS011;56065;52.472;13.380;2022-10-16T06:25:25;4.50;;;1.50;;
69008;SDS011;56065;52.472;13.380;2022-10-16T06:27:50;5.63;;;1.42;;
69008;SDS011;56065;52.472;13.380;2022-10-16T06:30:16;12.20;;;3.30;;
69008;SDS011;56065;52.472;13.380;2022-10-16T06:32:41;9.23;;;2.70;;
69008;SDS011;56065;52.472;13.380;2022-10-16T06:35:06;10.13;;;2.23;;
69008;SDS011;56065;52.472;13.380;2022-10-16T06:37:32;5.72;;;1.80;;
69008;SDS011;56065;52.472;13.380;2022-10-16T06:39:57;5.93;;;1.73;;
69008;SDS011;56065;52.472;13.380;2022-10-16T06:42:23;4.87;;;2.00;;
69008;SDS011;56065;52.472;13.380;2022-10-16T06:44:48;4.33;;;1.40;;
69008;SDS011;56065;52.472;13.380;2022-10-16T06:47:13;5.37;;;1.50;;
69008;SDS011;56065;52.472;13.380;2022-10-16T06:49:39;5.90;;;1.40;;
69008;SDS011;56065;52.472;13.380;2022-10-16T06:52:04;4.13;;;1.50;;
69008;SDS011;56065;52.472;13.380;2022-10-16T06:54:30;5.30;;;1.42;;
69008;SDS011;56065;52.472;13.380;2022-10-16T06:56:55;5.90;;;1.83;;
69008;SDS011;56065;52.472;13.380;2022-10-16T06:59:21;5.47;;;1.40;;
69008;SDS011;56065;52.472;13.380;2022-10-16T07:01:46;6.40;;;1.75;;
69008;SDS011;56065;52.472;13.380;2022-10-16T07:04:11;6.43;;;1.70;;
69008;SDS011;56065;52.472;13.380;2022-10-16T07:06:37;3.40;;;1.30;;
69008;SDS011;56065;52.472;13.380;2022-10-16T07:09:04;6.78;;;1.50;;
69008;SDS011;56065;52.472;13.380;2022-10-16T07:11:33;6.23;;;1.50;;
69008;SDS011;56065;52.472;13.380;2022-10-16T07:13:58;2.80;;;1.10;;
69008;SDS011;56065;52.472;13.380;2022-10-16T07:16:25;4.80;;;1.30;;
69008;SDS011;56065;52.472;13.380;2022-10-16T07:18:53;3.30;;;1.10;;
69008;SDS011;56065;52.472;13.380;2022-10-16T07:21:23;6.10;;;1.20;;
69008;SDS011;56065;52.472;13.380;2022-10-16T07:23:51;3.90;;;1.20;;
69008;SDS011;56065;52.472;13.380;2022-10-16T07:26:17;4.25;;;1.30;;
69008;SDS011;56065;52.472;13.380;2022-10-16T07:28:43;4.65;;;1.00;;
69008;SDS011;56065;52.472;13.380;2022-10-16T07:31:10;4.27;;;1.13;;
69008;SDS011;56065;52.472;13.380;2022-10-16T07:33:37;18.40;;;4.03;;
69008;SDS011;56065;52.472;13.380;2022-10-16T07:36:03;11.27;;;1.95;;
69008;SDS011;56065;52.472;13.380;2022-10-16T07:38:29;4.77;;;1.30;;
69008;SDS011;56065;52.472;13.380;2022-10-16T07:40:58;9.13;;;2.10;;
69008;SDS011;56065;52.472;13.380;2022-10-16T07:43:24;4.15;;;1.10;;
69008;SDS011;56065;52.472;13.380;2022-10-16T07:45:50;5.78;;;1.50;;
69008;SDS011;56065;52.472;13.380;2022-10-16T07:48:16;4.07;;;1.20;;
69008;SDS011;56065;52.472;13.380;2022-10-16T07:50:42;5.90;;;1.27;;
69008;SDS011;56065;52.472;13.380;2022-10-16T07:53:08;4.72;;;1.10;;
69008;SDS011;56065;52.472;13.380;2022-10-16T07:55:33;4.67;;;1.13;;
69008;SDS011;56065;52.472;13.380;2022-10-16T07:57:59;3.73;;;1.43;;
69008;SDS011;56065;52.472;13.380;2022-10-16T08:00:24;4.50;;;1.20;;
69008;SDS011;56065;52.472;13.380;2022-10-16T08:02:49;4.07;;;1.20;;
69008;SDS011;56065;52.472;13.380;2022-10-16T08:05:15;3.70;;;1.30;;
69008;SDS011;56065;52.472;13.380;2022-10-16T08:07:40;4.47;;;1.00;;
69008;SDS011;56065;52.472;13.380;2022-10-16T08:10:06;4.03;;;1.13;;
69008;SDS011;56065;52.472;13.380;2022-10-16T08:12:31;3.08;;;0.90;;
69008;SDS011;56065;52.472;13.380;2022-10-16T08:14:57;4.50;;;1.10;;
69008;SDS011;56065;52.472;13.380;2022-10-16T08:17:22;4.13;;;1.20;;
69008;SDS011;56065;52.472;13.380;2022-10-16T08:19:47;2.97;;;1.17;;
69008;SDS011;56065;52.472;13.380;2022-10-16T08:22:13;4.72;;;0.93;;
69008;SDS011;56065;52.472;13.380;2022-10-16T08:24:39;2.97;;;0.90;;
69008;SDS011;56065;52.472;13.380;2022-10-16T08:27:04;5.40;;;1.00;;
69008;SDS011;56065;52.472;13.380;2022-10-16T08:29:30;4.17;;;1.10;;
69008;SDS011;56065;52.472;13.380;2022-10-16T08:31:55;3.23;;;0.93;;
69008;SDS011;56065;52.472;13.380;2022-10-16T08:34:21;5.20;;;1.10;;
69008;SDS011;56065;52.472;13.380;2022-10-16T08:36:46;3.00;;;0.80;;
69008;SDS011;56065;52.472;13.380;2022-10-16T08:39:11;3.97;;;0.90;;
69008;SDS011;56065;52.472;13.380;2022-10-16T08:41:42;5.60;;;1.10;;
69008;SDS011;56065;52.472;13.380;2022-10-16T08:49:59;4.20;;;1.00;;
69008;SDS011;56065;52.472;13.380;2022-10-16T08:52:32;3.67;;;0.80;;
69008;SDS011;56065;52.472;13.380;2022-10-16T08:55:00;4.57;;;1.00;;
69008;SDS011;56065;52.472;13.380;2022-10-16T08:57:27;3.60;;;0.88;;
69008;SDS011;56065;52.472;13.380;2022-10-16T08:59:53;5.37;;;1.20;;
69008;SDS011;56065;52.472;13.380;2022-10-16T09:13:34;2.87;;;0.77;;
69008;SDS011;56065;52.472;13.380;2022-10-16T09:16:16;4.00;;;0.90;;
69008;SDS011;56065;52.472;13.380;2022-10-16T09:21:49;3.08;;;0.95;;
69008;SDS011;56065;52.472;13.380;2022-10-16T09:24:16;3.40;;;0.98;;
69008;SDS011;56065;52.472;13.380;2022-10-16T09:26:44;3.03;;;1.10;;
69008;SDS011;56065;52.472;13.380;2022-10-16T09:29:13;2.03;;;0.70;;
69008;SDS011;56065;52.472;13.380;2022-10-16T09:31:41;3.95;;;1.00;;
69008;SDS011;56065;52.472;13.380;2022-10-16T09:34:11;4.18;;;0.70;;
69008;SDS011;56065;52.472;13.380;2022-10-16T09:36:58;3.78;;;0.90;;
69008;SDS011;56065;52.472;13.380;2022-10-16T09:39:25;4.70;;;0.70;;
69008;SDS011;56065;52.472;13.380;2022-10-16T09:41:50;2.80;;;0.90;;
69008;SDS011;56065;52.472;13.380;2022-10-16T09:44:21;4.17;;;1.00;;
69008;SDS011;56065;52.472;13.380;2022-10-16T09:47:00;3.97;;;1.25;;
69008;SDS011;56065;52.472;13.380;2022-10-16T09:49:37;3.38;;;0.65;;
69008;SDS011;56065;52.472;13.380;2022-10-16T09:52:04;4.13;;;0.80;;
69008;SDS011;56065;52.472;13.380;2022-10-16T09:54:30;4.35;;;0.90;;
69008;SDS011;56065;52.472;13.380;2022-10-16T09:57:06;2.33;;;0.63;;
69008;SDS011;56065;52.472;13.380;2022-10-16T09:59:32;2.15;;;0.65;;
69008;SDS011;56065;52.472;13.380;2022-10-16T10:02:01;3.23;;;0.97;;
69008;SDS011;56065;52.472;13.380;2022-10-16T10:04:36;3.13;;;1.00;;
69008;SDS011;56065;52.472;13.380;2022-10-16T10:07:04;2.40;;;0.75;;
69008;SDS011;56065;52.472;13.380;2022-10-16T10:11:58;3.65;;;0.88;;
69008;SDS011;56065;52.472;13.380;2022-10-16T10:17:08;2.87;;;0.80;;
69008;SDS011;56065;52.472;13.380;2022-10-16T10:22:31;4.57;;;1.00;;
69008;SDS011;56065;52.472;13.380;2022-10-16T10:30:23;2.00;;;0.60;;
69008;SDS011;56065;52.472;13.380;2022-10-16T10:33:20;3.70;;;0.90;;
69008;SDS011;56065;52.472;13.380;2022-10-16T10:46:41;4.65;;;0.80;;
69008;SDS011;56065;52.472;13.380;2022-10-16T10:54:44;3.58;;;1.42;;
69008;SDS011;56065;52.472;13.380;2022-10-16T10:57:27;4.70;;;0.80;;
69008;SDS011;56065;52.472;13.380;2022-10-16T11:02:54;4.13;;;0.75;;
69008;SDS011;56065;52.472;13.380;2022-10-16T11:08:18;12.30;;;1.70;;
69008;SDS011;56065;52.472;13.380;2022-10-16T11:10:50;4.07;;;1.13;;
69008;SDS011;56065;52.472;13.380;2022-10-16T11:15:48;4.25;;;1.35;;
69008;SDS011;56065;52.472;13.380;2022-10-16T11:20:51;2.65;;;0.80;;
69008;SDS011;56065;52.472;13.380;2022-10-16T11:23:26;7.80;;;3.00;;
69008;SDS011;56065;52.472;13.380;2022-10-16T11:25:59;3.42;;;0.88;;
69008;SDS011;56065;52.472;13.380;2022-10-16T11:28:34;3.88;;;0.68;;
69008;SDS011;56065;52.472;13.380;2022-10-16T11:31:27;3.03;;;0.90;;
69008;SDS011;56065;52.472;13.380;2022-10-16T11:34:43;2.85;;;0.77;;
69008;SDS011;56065;52.472;13.380;2022-10-16T11:36:53;2.60;;;0.83;;
69008;SDS011;56065;52.472;13.380;2022-10-16T11:39:41;2.97;;;0.93;;
69008;SDS011;56065;52.472;13.380;2022-10-16T11:42:13;4.18;;;1.38;;
69008;SDS011;56065;52.472;13.380;2022-10-16T11:47:31;2.60;;;0.80;;
69008;SDS011;56065;52.472;13.380;2022-10-16T11:55:50;3.13;;;0.85;;
69008;SDS011;56065;52.472;13.380;2022-10-16T12:01:10;2.85;;;0.65;;
69008;SDS011;56065;52.472;13.380;2022-10-16T12:08:58;2.20;;;0.60;;
69008;SDS011;56065;52.472;13.380;2022-10-16T12:16:37;4.00;;;1.10;;
69008;SDS011;56065;52.472;13.380;2022-10-16T12:19:14;4.00;;;0.73;;
69008;SDS011;56065;52.472;13.380;2022-10-16T12:21:41;2.42;;;0.60;;
69008;SDS011;56065;52.472;13.380;2022-10-16T12:24:19;1.77;;;0.65;;
69008;SDS011;56065;52.472;13.380;2022-10-16T12:27:17;2.97;;;0.90;;
69008;SDS011;56065;52.472;13.380;2022-10-16T12:29:56;3.10;;;0.90;;
69008;SDS011;56065;52.472;13.380;2022-10-16T12:32:30;2.83;;;0.80;;
69008;SDS011;56065;52.472;13.380;2022-10-16T12:34:58;2.00;;;0.70;;
69008;SDS011;56065;52.472;13.380;2022-10-16T12:37:25;3.15;;;0.70;;
69008;SDS011;56065;52.472;13.380;2022-10-16T12:39:54;1.97;;;0.50;;
69008;SDS011;56065;52.472;13.380;2022-10-16T12:44:52;2.67;;;0.52;;
69008;SDS011;56065;52.472;13.380;2022-10-16T12:47:37;2.88;;;0.60;;
69008;SDS011;56065;52.472;13.380;2022-10-16T12:53:01;3.37;;;0.80;;
69008;SDS011;56065;52.472;13.380;2022-10-16T12:55:31;2.17;;;0.50;;
69008;SDS011;56065;52.472;13.380;2022-10-16T12:58:16;4.25;;;0.90;;
69008;SDS011;56065;52.472;13.380;2022-10-16T13:01:08;2.65;;;0.80;;
69008;SDS011;56065;52.472;13.380;2022-10-16T13:06:30;2.43;;;0.80;;
69008;SDS011;56065;52.472;13.380;2022-10-16T13:19:11;3.95;;;0.70;;
69008;SDS011;56065;52.472;13.380;2022-10-16T13:27:34;3.83;;;0.60;;
69008;SDS011;56065;52.472;13.380;2022-10-16T13:30:11;2.63;;;0.70;;
69008;SDS011;56065;52.472;13.380;2022-10-16T13:32:50;1.92;;;0.60;;
69008;SDS011;56065;52.472;13.380;2022-10-16T13:35:24;1.73;;;0.40;;
69008;SDS011;56065;52.472;13.380;2022-10-16T13:38:02;2.73;;;0.57;;
69008;SDS011;56065;52.472;13.380;2022-10-16T13:40:29;1.50;;;0.50;;
69008;SDS011;56065;52.472;13.380;2022-10-16T13:42:54;2.17;;;0.50;;
69008;SDS011;56065;52.472;13.380;2022-10-16T13:45:21;1.65;;;0.50;;
69008;SDS011;56065;52.472;13.380;2022-10-16T13:47:48;2.25;;;0.60;;
69008;SDS011;56065;52.472;13.380;2022-10-16T13:50:14;3.77;;;0.60;;
69008;SDS011;56065;52.472;13.380;2022-10-16T13:52:42;2.63;;;0.70;;
69008;SDS011;56065;52.472;13.380;2022-10-16T13:55:13;3.87;;;0.60;;
69008;SDS011;56065;52.472;13.380;2022-10-16T13:57:41;4.03;;;0.70;;
69008;SDS011;56065;52.472;13.380;2022-10-16T14:00:24;2.30;;;0.70;;
69008;SDS011;56065;52.472;13.380;2022-10-16T14:03:11;2.25;;;0.60;;
69008;SDS011;56065;52.472;13.380;2022-10-16T14:05:45;3.70;;;0.60;;
69008;SDS011;56065;52.472;13.380;2022-10-16T14:08:23;1.45;;;0.65;;
69008;SDS011;56065;52.472;13.380;2022-10-16T14:10:51;2.53;;;0.60;;
69008;SDS011;56065;52.472;13.380;2022-10-16T14:13:19;2.35;;;0.60;;
69008;SDS011;56065;52.472;13.380;2022-10-16T14:15:51;2.88;;;0.70;;
69008;SDS011;56065;52.472;13.380;2022-10-16T14:18:18;4.00;;;0.77;;
69008;SDS011;56065;52.472;13.380;2022-10-16T14:20:46;4.65;;;0.70;;
69008;SDS011;56065;52.472;13.380;2022-10-16T14:23:21;3.10;;;0.40;;
69008;SDS011;56065;52.472;13.380;2022-10-16T14:25:46;1.42;;;0.40;;
69008;SDS011;56065;52.472;13.380;2022-10-16T14:28:19;5.03;;;0.70;;
69008;SDS011;56065;52.472;13.380;2022-10-16T14:33:23;3.05;;;0.70;;
69008;SDS011;56065;52.472;13.380;2022-10-16T14:38:38;2.20;;;0.50;;
69008;SDS011;56065;52.472;13.380;2022-10-16T14:41:06;2.13;;;0.47;;
69008;SDS011;56065;52.472;13.380;2022-10-16T14:43:32;3.72;;;0.50;;
69008;SDS011;56065;52.472;13.380;2022-10-16T14:46:12;4.40;;;0.67;;
69008;SDS011;56065;52.472;13.380;2022-10-16T14:48:41;1.70;;;0.50;;
69008;SDS011;56065;52.472;13.380;2022-10-16T14:51:08;3.22;;;0.60;;
69008;SDS011;56065;52.472;13.380;2022-10-16T14:53:38;1.52;;;0.50;;
69008;SDS011;56065;52.472;13.380;2022-10-16T14:56:16;1.70;;;0.50;;
69008;SDS011;56065;52.472;13.380;2022-10-16T14:58:44;2.42;;;0.60;;
69008;SDS011;56065;52.472;13.380;2022-10-16T15:01:10;3.33;;;0.60;;
69008;SDS011;56065;52.472;13.380;2022-10-16T15:03:36;2.28;;;0.60;;
69008;SDS011;56065;52.472;13.380;2022-10-16T15:06:02;3.80;;;0.60;;
69008;SDS011;56065;52.472;13.380;2022-10-16T15:08:28;1.47;;;0.40;;
69008;SDS011;56065;52.472;13.380;2022-10-16T15:10:53;3.63;;;0.60;;
69008;SDS011;56065;52.472;13.380;2022-10-16T15:13:18;1.80;;;0.57;;
69008;SDS011;56065;52.472;13.380;2022-10-16T15:15:44;2.17;;;0.60;;
69008;SDS011;56065;52.472;13.380;2022-10-16T15:18:11;3.38;;;0.50;;
69008;SDS011;56065;52.472;13.380;2022-10-16T15:20:39;2.65;;;0.60;;
69008;SDS011;56065;52.472;13.380;2022-10-16T15:23:06;2.23;;;0.50;;
69008;SDS011;56065;52.472;13.380;2022-10-16T15:25:43;3.30;;;0.50;;
69008;SDS011;56065;52.472;13.380;2022-10-16T15:28:13;2.03;;;0.50;;
69008;SDS011;56065;52.472;13.380;2022-10-16T15:30:40;3.20;;;0.47;;
69008;SDS011;56065;52.472;13.380;2022-10-16T15:33:09;4.33;;;0.60;;
69008;SDS011;56065;52.472;13.380;2022-10-16T15:35:38;2.42;;;0.60;;
69008;SDS011;56065;52.472;13.380;2022-10-16T15:38:03;5.00;;;0.90;;
69008;SDS011;56065;52.472;13.380;2022-10-16T15:40:29;2.67;;;0.80;;
69008;SDS011;56065;52.472;13.380;2022-10-16T15:42:54;3.10;;;0.80;;
69008;SDS011;56065;52.472;13.380;2022-10-16T15:45:19;3.30;;;1.00;;
69008;SDS011;56065;52.472;13.380;2022-10-16T15:47:45;4.15;;;0.95;;
69008;SDS011;56065;52.472;13.380;2022-10-16T15:50:15;4.63;;;0.80;;
69008;SDS011;56065;52.472;13.380;2022-10-16T15:52:41;6.32;;;1.30;;
69008;SDS011;56065;52.472;13.380;2022-10-16T15:55:10;3.57;;;0.90;;
69008;SDS011;56065;52.472;13.380;2022-10-16T15:57:37;4.75;;;0.80;;
69008;SDS011;56065;52.472;13.380;2022-10-16T16:00:09;4.35;;;1.42;;
69008;SDS011;56065;52.472;13.380;2022-10-16T16:02:39;4.22;;;0.70;;
69008;SDS011;56065;52.472;13.380;2022-10-16T16:05:06;3.25;;;0.80;;
69008;SDS011;56065;52.472;13.380;2022-10-16T16:07:33;2.97;;;0.90;;
69008;SDS011;56065;52.472;13.380;2022-10-16T16:09:59;4.53;;;0.82;;
69008;SDS011;56065;52.472;13.380;2022-10-16T16:12:24;7.30;;;2.03;;
69008;SDS011;56065;52.472;13.380;2022-10-16T16:14:50;6.40;;;1.20;;
69008;SDS011;56065;52.472;13.380;2022-10-16T16:17:16;4.03;;;0.80;;
69008;SDS011;56065;52.472;13.380;2022-10-16T16:19:41;4.05;;;1.02;;
69008;SDS011;56065;52.472;13.380;2022-10-16T16:22:07;3.30;;;0.90;;
69008;SDS011;56065;52.472;13.380;2022-10-16T16:24:32;3.67;;;1.07;;
69008;SDS011;56065;52.472;13.380;2022-10-16T16:26:58;3.83;;;0.80;;
69008;SDS011;56065;52.472;13.380;2022-10-16T16:29:23;3.83;;;1.07;;
69008;SDS011;56065;52.472;13.380;2022-10-16T16:31:48;3.70;;;1.00;;
69008;SDS011;56065;52.472;13.380;2022-10-16T16:34:13;6.43;;;1.40;;
69008;SDS011;56065;52.472;13.380;2022-10-16T16:36:39;4.40;;;1.20;;
69008;SDS011;56065;52.472;13.380;2022-10-16T16:39:05;6.63;;;1.20;;
69008;SDS011;56065;52.472;13.380;2022-10-16T16:41:31;6.70;;;1.70;;
69008;SDS011;56065;52.472;13.380;2022-10-16T16:44:01;3.60;;;1.20;;
69008;SDS011;56065;52.472;13.380;2022-10-16T16:46:28;4.47;;;1.45;;
69008;SDS011;56065;52.472;13.380;2022-10-16T16:48:53;5.57;;;1.33;;
69008;SDS011;56065;52.472;13.380;2022-10-16T16:51:20;4.85;;;1.13;;
69008;SDS011;56065;52.472;13.380;2022-10-16T16:53:47;5.93;;;1.00;;